createdAt,value
2018-10-16T00:00:17.598Z,20.47
2018-10-16T00:02:47.002Z,19.33
2018-10-16T00:05:16.658Z,15.83
2018-10-16T00:07:45.414Z,16.40
2018-10-16T00:10:18.430Z,15.50
2018-10-16T00:12:47.459Z,18.63
2018-10-16T00:15:16.312Z,19.50
2018-10-16T00:17:45.058Z,18.03
2018-10-16T00:20:13.868Z,22.20
2018-10-16T00:22:42.818Z,23.20
2018-10-16T00:25:14.451Z,22.40
2018-10-16T00:27:43.219Z,24.90
2018-10-16T00:30:12.038Z,26.27
2018-10-16T00:32:41.708Z,24.13
2018-10-16T00:35:10.878Z,22.13
2018-10-16T00:37:39.762Z,26.07
2018-10-16T00:40:09.310Z,24.57
2018-10-16T00:42:38.155Z,26.70
2018-10-16T00:45:08.547Z,21.40
2018-10-16T00:47:37.404Z,21.60
2018-10-16T00:50:06.317Z,22.93
2018-10-16T00:52:35.102Z,24.87
2018-10-16T00:55:04.433Z,25.33
2018-10-16T00:57:33.178Z,22.73
2018-10-16T01:00:01.941Z,23.33
2018-10-16T01:02:30.696Z,21.73
2018-10-16T01:04:59.459Z,23.53
2018-10-16T01:07:28.220Z,23.53
2018-10-16T01:09:56.947Z,24.73
2018-10-16T01:12:25.744Z,21.67
2018-10-16T01:14:54.515Z,22.97
2018-10-16T01:17:23.280Z,23.53
2018-10-16T01:19:52.030Z,23.63
2018-10-16T01:22:20.842Z,23.02
2018-10-16T01:24:49.590Z,22.07
2018-10-16T01:27:18.417Z,23.20
2018-10-16T01:29:47.249Z,22.97
2018-10-16T01:32:16.055Z,21.48
2018-10-16T01:34:44.820Z,21.50
2018-10-16T01:37:13.594Z,20.62
2018-10-16T01:39:42.362Z,23.40
2018-10-16T01:42:11.146Z,21.30
2018-10-16T01:44:39.911Z,21.63
2018-10-16T01:47:08.730Z,22.70
2018-10-16T01:49:37.537Z,22.47
2018-10-16T01:52:06.337Z,22.93
2018-10-16T01:54:35.102Z,23.93
2018-10-16T01:57:04.551Z,21.53
2018-10-16T01:59:33.333Z,20.17
2018-10-16T02:02:02.119Z,21.60
2018-10-16T02:04:30.966Z,19.17
2018-10-16T02:06:59.737Z,18.57
2018-10-16T02:09:28.550Z,15.13
2018-10-16T02:11:57.330Z,16.63
2018-10-16T02:14:26.729Z,14.87
2018-10-16T02:16:56.254Z,14.57
2018-10-16T02:19:25.070Z,15.93
2018-10-16T02:21:53.893Z,14.57
2018-10-16T02:24:22.655Z,12.23
2018-10-16T02:26:51.419Z,14.93
2018-10-16T02:29:20.179Z,13.70
2018-10-16T02:31:48.939Z,18.33
2018-10-16T02:34:17.693Z,15.95
2018-10-16T02:36:46.439Z,15.83
2018-10-16T02:39:15.191Z,18.40
2018-10-16T02:41:43.983Z,16.83
2018-10-16T02:44:12.722Z,18.12
2018-10-16T02:46:41.507Z,18.73
2018-10-16T02:49:10.283Z,19.07
2018-10-16T02:51:39.092Z,15.80
2018-10-16T02:54:07.842Z,15.03
2018-10-16T02:56:37.182Z,15.67
2018-10-16T02:59:05.951Z,17.10
2018-10-16T03:01:34.711Z,14.70
2018-10-16T03:04:04.479Z,17.23
2018-10-16T03:06:33.230Z,16.23
2018-10-16T03:09:02.000Z,14.60
2018-10-16T03:11:30.774Z,15.20
2018-10-16T03:13:59.578Z,13.50
2018-10-16T03:16:28.367Z,13.03
2018-10-16T03:18:57.183Z,15.83
2018-10-16T03:21:25.966Z,14.33
2018-10-16T03:23:54.817Z,15.20
2018-10-16T03:26:23.575Z,15.80
2018-10-16T03:28:52.319Z,18.73
2018-10-16T03:31:21.070Z,20.12
2018-10-16T03:33:49.908Z,16.97
2018-10-16T03:36:18.693Z,16.20
2018-10-16T03:38:47.506Z,18.27
2018-10-16T03:41:16.299Z,19.40
2018-10-16T03:43:45.074Z,19.53
2018-10-16T03:46:13.974Z,17.57
2018-10-16T03:48:42.723Z,19.23
2018-10-16T03:51:11.482Z,15.47
2018-10-16T03:53:40.235Z,16.63
2018-10-16T03:56:09.070Z,16.48
2018-10-16T03:58:37.882Z,16.77
2018-10-16T04:01:07.286Z,18.20
2018-10-16T04:03:36.073Z,18.27
2018-10-16T04:06:04.977Z,22.30
2018-10-16T04:08:33.721Z,22.03
2018-10-16T04:11:03.022Z,18.27
2018-10-16T04:13:31.749Z,20.87
2018-10-16T04:16:00.516Z,21.97
2018-10-16T04:18:29.299Z,20.43
2018-10-16T04:20:58.095Z,24.33
2018-10-16T04:23:26.874Z,21.03
2018-10-16T04:25:55.651Z,21.37
2018-10-16T04:28:24.478Z,20.13
2018-10-16T04:30:53.230Z,22.80
2018-10-16T04:33:22.003Z,23.30
2018-10-16T04:35:50.785Z,20.23
2018-10-16T04:38:19.566Z,21.70
2018-10-16T04:40:48.991Z,17.77
2018-10-16T04:43:17.734Z,16.93
2018-10-16T04:45:46.542Z,19.60
2018-10-16T04:48:15.326Z,18.37
2018-10-16T04:50:44.070Z,17.17
2018-10-16T04:53:12.859Z,16.97
2018-10-16T04:55:41.658Z,19.07
2018-10-16T04:58:10.440Z,16.53
2018-10-16T05:00:39.214Z,15.37
2018-10-16T05:03:07.976Z,20.80
2018-10-16T05:05:36.750Z,18.77
2018-10-16T05:08:05.967Z,18.07
2018-10-16T05:10:34.768Z,18.17
2018-10-16T05:13:04.845Z,17.25
2018-10-16T05:15:34.395Z,18.57
2018-10-16T05:18:03.262Z,16.00
2018-10-16T05:20:32.005Z,18.60
2018-10-16T05:23:01.176Z,17.63
2018-10-16T05:25:30.631Z,20.03
2018-10-16T05:27:59.402Z,18.80
2018-10-16T05:30:28.215Z,17.83
2018-10-16T05:32:56.948Z,19.77
2018-10-16T05:35:25.718Z,19.50
2018-10-16T05:37:54.487Z,20.50
2018-10-16T05:40:23.219Z,19.53
2018-10-16T05:42:51.974Z,20.30
2018-10-16T05:45:20.741Z,20.08
2018-10-16T05:47:49.484Z,18.70
2018-10-16T05:50:18.230Z,20.30
2018-10-16T05:52:47.002Z,20.63
2018-10-16T05:55:15.758Z,17.92
2018-10-16T05:57:44.494Z,19.07
2018-10-16T06:00:24.571Z,18.37
2018-10-16T06:02:53.350Z,21.93
2018-10-16T06:05:22.098Z,21.37
2018-10-16T06:07:50.882Z,20.33
2018-10-16T06:10:19.671Z,19.42
2018-10-16T06:12:48.410Z,19.13
2018-10-16T06:15:17.423Z,17.20
2018-10-16T06:17:46.119Z,14.10
2018-10-16T06:20:14.862Z,17.00
2018-10-16T06:22:43.673Z,16.52
2018-10-16T06:25:12.710Z,16.10
2018-10-16T06:27:42.518Z,16.10
2018-10-16T06:30:11.696Z,14.93
2018-10-16T06:32:42.506Z,14.40
2018-10-16T06:35:11.574Z,16.87
2018-10-16T06:37:40.444Z,18.10
2018-10-16T06:40:09.975Z,17.27
2018-10-16T06:42:39.238Z,16.87
2018-10-16T06:45:09.206Z,17.53
2018-10-16T06:47:38.182Z,18.80
2018-10-16T06:50:08.808Z,22.87
2018-10-16T06:52:37.595Z,24.13
2018-10-16T06:55:06.381Z,23.60
2018-10-16T06:57:35.558Z,25.40
2018-10-16T07:00:06.197Z,26.30
2018-10-16T07:02:34.896Z,23.90
2018-10-16T07:05:05.429Z,22.70
2018-10-16T07:07:34.162Z,26.63
2018-10-16T07:10:02.902Z,30.33
2018-10-16T07:12:31.644Z,33.93
2018-10-16T07:15:00.464Z,28.37
2018-10-16T07:17:29.167Z,31.67
2018-10-16T07:19:57.927Z,35.00
2018-10-16T07:22:26.691Z,25.63
2018-10-16T07:24:55.428Z,28.93
2018-10-16T07:27:24.480Z,29.90
2018-10-16T07:29:53.285Z,25.73
2018-10-16T07:32:21.986Z,29.07
2018-10-16T07:34:50.775Z,27.67
2018-10-16T07:37:19.522Z,27.90
2018-10-16T07:39:48.258Z,30.33
2018-10-16T07:42:16.989Z,27.80
2018-10-16T07:44:45.806Z,26.40
2018-10-16T07:47:14.555Z,27.20
2018-10-16T07:49:43.318Z,25.93
2018-10-16T07:52:12.054Z,25.30
2018-10-16T07:54:40.839Z,26.90
2018-10-16T07:57:09.953Z,24.95
2018-10-16T07:59:38.610Z,29.57
2018-10-16T08:02:07.361Z,31.50
2018-10-16T08:04:36.095Z,31.00
2018-10-16T08:07:04.874Z,29.23
2018-10-16T08:09:33.642Z,31.53
2018-10-16T08:12:02.458Z,29.20
2018-10-16T08:14:31.196Z,28.13
2018-10-16T08:16:59.951Z,29.90
2018-10-16T08:19:28.723Z,26.93
2018-10-16T08:21:57.470Z,27.60
2018-10-16T08:24:26.218Z,26.77
2018-10-16T08:26:55.064Z,24.97
2018-10-16T08:29:23.770Z,25.50
2018-10-16T08:31:52.516Z,25.97
2018-10-16T08:34:21.364Z,23.53
2018-10-16T08:36:50.145Z,26.40
2018-10-16T08:39:24.682Z,24.60
2018-10-16T08:44:13.562Z,22.03
2018-10-16T08:46:53.749Z,23.10
2018-10-16T08:49:33.851Z,22.97
2018-10-16T08:52:02.595Z,21.70
2018-10-16T08:54:31.335Z,22.67
2018-10-16T08:57:00.082Z,23.83
2018-10-16T08:59:28.902Z,22.27
2018-10-16T09:01:57.658Z,22.10
2018-10-16T09:04:26.443Z,21.17
2018-10-16T09:06:55.222Z,21.07
2018-10-16T09:09:23.918Z,19.93
2018-10-16T09:11:53.354Z,20.57
2018-10-16T09:14:22.149Z,19.77
2018-10-16T09:16:50.875Z,19.93
2018-10-16T09:19:19.670Z,18.82
2018-10-16T09:21:48.454Z,20.50
2018-10-16T09:24:17.198Z,18.75
2018-10-16T09:26:45.975Z,19.63
2018-10-16T09:29:14.778Z,20.47
2018-10-16T09:31:43.511Z,21.50
2018-10-16T09:34:12.266Z,21.45
2018-10-16T09:36:41.042Z,18.70
2018-10-16T09:39:10.722Z,20.37
2018-10-16T09:41:39.503Z,19.63
2018-10-16T09:44:08.250Z,20.73
2018-10-16T09:46:37.223Z,16.70
2018-10-16T09:49:05.963Z,19.13
2018-10-16T09:51:34.702Z,20.20
2018-10-16T09:54:04.427Z,19.37
2018-10-16T09:56:33.226Z,17.57
2018-10-16T09:59:01.999Z,19.00
2018-10-16T10:01:36.227Z,19.07
2018-10-16T10:04:05.094Z,17.93
2018-10-16T10:06:33.822Z,19.10
2018-10-16T10:09:03.790Z,14.70
2018-10-16T10:11:32.542Z,18.13
2018-10-16T10:14:01.368Z,19.50
2018-10-16T10:16:30.112Z,19.07
2018-10-16T10:18:58.846Z,18.37
2018-10-16T10:21:27.637Z,15.47
2018-10-16T10:23:56.382Z,16.63
2018-10-16T10:26:25.114Z,17.20
2018-10-16T10:28:53.926Z,17.70
2018-10-16T10:31:22.679Z,17.70
2018-10-16T10:33:51.469Z,18.10
2018-10-16T10:36:20.262Z,16.40
2018-10-16T10:38:49.038Z,17.50
2018-10-16T10:41:17.847Z,14.68
2018-10-16T10:43:46.698Z,15.87
2018-10-16T10:46:15.538Z,17.30
2018-10-16T10:48:44.266Z,16.20
2018-10-16T10:51:13.276Z,13.13
2018-10-16T10:53:41.758Z,14.50
2018-10-16T10:56:10.498Z,13.30
2018-10-16T10:58:39.254Z,11.67
2018-10-16T11:01:08.002Z,12.90
2018-10-16T11:03:36.782Z,13.97
2018-10-16T11:06:05.554Z,11.20
2018-10-16T11:08:34.299Z,12.73
2018-10-16T11:11:03.031Z,10.37
2018-10-16T11:13:31.813Z,11.80
2018-10-16T11:16:00.518Z,9.90
2018-10-16T11:18:30.133Z,10.13
2018-10-16T11:20:58.889Z,11.03
2018-10-16T11:23:27.721Z,10.63
2018-10-16T11:25:56.440Z,11.47
2018-10-16T11:28:25.182Z,9.63
2018-10-16T11:30:54.388Z,11.60
2018-10-16T11:33:23.106Z,11.03
2018-10-16T11:35:51.922Z,11.60
2018-10-16T11:38:20.699Z,10.87
2018-10-16T11:40:49.463Z,11.80
2018-10-16T11:43:18.231Z,11.93
2018-10-16T11:45:47.019Z,11.53
2018-10-16T11:48:15.867Z,11.00
2018-10-16T11:50:44.571Z,11.27
2018-10-16T11:53:13.298Z,10.17
2018-10-16T11:55:42.058Z,12.80
2018-10-16T11:58:10.796Z,11.47
2018-10-16T12:00:39.622Z,12.17
2018-10-16T12:03:08.386Z,11.60
2018-10-16T12:05:37.115Z,12.40
2018-10-16T12:08:05.920Z,11.43
2018-10-16T12:10:34.653Z,10.93
2018-10-16T12:13:04.314Z,11.67
2018-10-16T12:15:33.050Z,11.90
2018-10-16T12:18:05.100Z,12.03
2018-10-16T12:20:37.899Z,11.50
2018-10-16T12:23:06.666Z,10.00
2018-10-16T12:25:35.422Z,12.97
2018-10-16T12:28:04.413Z,11.57
2018-10-16T12:30:33.160Z,13.10
2018-10-16T12:33:01.958Z,11.87
2018-10-16T12:35:30.702Z,12.27
2018-10-16T12:37:59.482Z,12.07
2018-10-16T12:40:28.222Z,10.43
2018-10-16T12:42:57.055Z,12.17
2018-10-16T12:45:25.741Z,10.83
2018-10-16T12:47:54.507Z,11.70
2018-10-16T12:50:23.270Z,11.80
2018-10-16T12:52:51.973Z,11.77
2018-10-16T12:55:20.686Z,9.43
2018-10-16T12:57:49.455Z,10.37
2018-10-16T13:00:18.236Z,9.58
2018-10-16T13:02:46.966Z,10.00
2018-10-16T13:05:16.004Z,10.45
2018-10-16T13:07:44.632Z,9.60
2018-10-16T13:10:14.624Z,9.40
2018-10-16T13:12:44.277Z,9.73
2018-10-16T13:15:13.976Z,7.83
2018-10-16T13:17:42.757Z,8.40
2018-10-16T13:20:13.031Z,7.20
2018-10-16T13:22:42.582Z,7.70
2018-10-16T13:25:12.799Z,9.23
2018-10-16T13:27:41.532Z,7.63
2018-10-16T13:30:12.073Z,7.97
2018-10-16T13:32:40.914Z,7.20
2018-10-16T13:35:15.838Z,6.83
2018-10-16T13:37:45.249Z,5.13
2018-10-16T13:40:14.075Z,5.53
2018-10-16T13:42:42.881Z,5.03
2018-10-16T13:45:12.477Z,4.15
2018-10-16T13:47:41.463Z,5.57
2018-10-16T13:50:12.530Z,4.60
2018-10-16T13:52:41.205Z,4.73
2018-10-16T13:55:10.839Z,3.95
2018-10-16T13:57:39.909Z,4.43
2018-10-16T14:00:12.512Z,5.03
2018-10-16T14:02:41.950Z,4.70
2018-10-16T14:05:10.682Z,4.33
2018-10-16T14:07:39.488Z,4.57
2018-10-16T14:10:09.719Z,5.03
2018-10-16T14:12:39.414Z,4.57
2018-10-16T14:15:08.612Z,4.43
2018-10-16T14:17:37.426Z,5.03
2018-10-16T14:20:06.798Z,4.50
2018-10-16T14:22:36.026Z,4.50
2018-10-16T14:25:05.461Z,4.43
2018-10-16T14:27:34.222Z,4.27
2018-10-16T14:30:03.262Z,4.93
2018-10-16T14:32:31.997Z,4.50
2018-10-16T14:35:00.747Z,4.33
2018-10-16T14:37:29.526Z,3.70
2018-10-16T14:39:58.273Z,5.33
2018-10-16T14:42:27.060Z,5.43
2018-10-16T14:44:55.786Z,4.53
2018-10-16T14:47:24.521Z,5.20
2018-10-16T14:49:53.318Z,4.27
2018-10-16T14:52:22.011Z,5.20
2018-10-16T14:54:50.812Z,5.03
2018-10-16T14:57:19.626Z,4.47
2018-10-16T14:59:48.394Z,4.83
2018-10-16T15:02:17.158Z,4.57
2018-10-16T15:04:45.926Z,3.97
2018-10-16T15:07:14.640Z,4.50
2018-10-16T15:09:43.464Z,4.28
2018-10-16T15:12:12.179Z,4.62
2018-10-16T15:14:40.939Z,4.37
2018-10-16T15:17:09.702Z,3.80
2018-10-16T15:19:38.450Z,4.83
2018-10-16T15:22:07.435Z,5.23
2018-10-16T15:24:36.114Z,3.60
2018-10-16T15:27:05.062Z,4.70
2018-10-16T15:29:33.916Z,4.97
2018-10-16T15:32:02.634Z,5.33
2018-10-16T15:34:31.374Z,4.50
2018-10-16T15:37:00.182Z,4.73
2018-10-16T15:39:28.922Z,5.57
2018-10-16T15:41:57.813Z,5.40
2018-10-16T15:44:26.565Z,4.90
2018-10-16T15:46:55.298Z,5.10
2018-10-16T15:49:24.040Z,4.63
2018-10-16T15:51:52.811Z,5.37
2018-10-16T15:54:22.211Z,4.57
2018-10-16T15:56:51.954Z,4.57
2018-10-16T15:59:20.735Z,4.67
2018-10-16T16:01:49.516Z,5.07
2018-10-16T16:04:18.494Z,4.30
2018-10-16T16:06:47.258Z,4.37
2018-10-16T16:09:16.032Z,5.60
2018-10-16T16:11:44.870Z,5.13
2018-10-16T16:14:13.687Z,4.60
2018-10-16T16:16:42.375Z,4.43
2018-10-16T16:19:11.157Z,4.73
2018-10-16T16:21:39.892Z,4.43
2018-10-16T16:24:08.675Z,5.10
2018-10-16T16:26:37.417Z,5.10
2018-10-16T16:29:06.255Z,4.47
2018-10-16T16:31:35.104Z,6.20
2018-10-16T16:34:05.023Z,4.47
2018-10-16T16:36:33.732Z,4.63
2018-10-16T16:39:02.438Z,3.77
2018-10-16T16:41:31.215Z,5.10
2018-10-16T16:43:59.976Z,4.13
2018-10-16T16:46:28.730Z,5.37
2018-10-16T16:48:57.468Z,5.27
2018-10-16T16:51:26.247Z,5.10
2018-10-16T16:53:54.973Z,5.57
2018-10-16T16:56:23.722Z,5.77
2018-10-16T16:58:52.732Z,6.33
2018-10-16T17:01:21.413Z,6.43
2018-10-16T17:03:50.194Z,5.77
2018-10-16T17:06:19.054Z,6.63
2018-10-16T17:08:47.837Z,7.13
2018-10-16T17:11:16.619Z,7.03
2018-10-16T17:13:45.436Z,8.30
2018-10-16T17:16:14.179Z,8.30
2018-10-16T17:18:43.070Z,7.40
2018-10-16T17:21:11.836Z,7.53
2018-10-16T17:23:40.558Z,8.33
2018-10-16T17:26:09.424Z,7.17
2018-10-16T17:28:38.050Z,8.43
2018-10-16T17:31:06.855Z,8.10
2018-10-16T17:33:35.674Z,8.20
2018-10-16T17:36:04.984Z,8.43
2018-10-16T17:38:33.737Z,8.13
2018-10-16T17:41:02.767Z,8.87
2018-10-16T17:43:31.507Z,9.57
2018-10-16T17:46:00.305Z,10.00
2018-10-16T17:48:29.063Z,8.70
2018-10-16T17:50:57.917Z,9.13
2018-10-16T17:53:27.546Z,9.00
2018-10-16T17:55:56.355Z,9.13
2018-10-16T17:58:25.102Z,10.67
2018-10-16T18:00:53.906Z,10.67
2018-10-16T18:03:22.668Z,10.47
2018-10-16T18:05:51.462Z,9.30
2018-10-16T18:08:20.187Z,9.20
2018-10-16T18:10:48.937Z,10.87
2018-10-16T18:13:17.703Z,11.30
2018-10-16T18:15:46.526Z,9.47
2018-10-16T18:18:15.331Z,10.55
2018-10-16T18:20:44.093Z,11.23
2018-10-16T18:23:12.846Z,9.27
2018-10-16T18:25:41.626Z,9.50
2018-10-16T18:28:10.373Z,9.50
2018-10-16T18:30:39.133Z,10.93
2018-10-16T18:33:07.968Z,10.23
2018-10-16T18:35:36.665Z,9.57
2018-10-16T18:38:05.468Z,10.90
2018-10-16T18:40:34.219Z,10.13
2018-10-16T18:43:02.966Z,10.00
2018-10-16T18:45:31.713Z,9.80
2018-10-16T18:48:00.466Z,10.87
2018-10-16T18:50:29.306Z,9.73
2018-10-16T18:52:58.049Z,9.90
2018-10-16T18:55:26.786Z,11.73
2018-10-16T18:57:55.567Z,10.00
2018-10-16T19:00:24.330Z,10.10
2018-10-16T19:02:53.045Z,11.10
2018-10-16T19:05:22.442Z,9.73
2018-10-16T19:07:51.387Z,11.27
2018-10-16T19:10:20.150Z,11.70
2018-10-16T19:12:48.911Z,12.23
2018-10-16T19:15:18.412Z,10.43
2018-10-16T19:17:47.334Z,10.53
2018-10-16T19:20:16.974Z,9.30
2018-10-16T19:22:46.393Z,8.63
2018-10-16T19:25:17.233Z,10.10
2018-10-16T19:27:46.015Z,9.30
2018-10-16T19:30:14.730Z,9.13
2018-10-16T19:32:43.518Z,10.50
2018-10-16T19:35:13.465Z,10.77
2018-10-16T19:37:42.380Z,10.43
2018-10-16T19:40:11.231Z,10.43
2018-10-16T19:42:39.990Z,10.10
2018-10-16T19:45:09.342Z,10.60
2018-10-16T19:47:38.065Z,11.03
2018-10-16T19:50:07.378Z,12.53
2018-10-16T19:52:36.157Z,12.27
2018-10-16T19:55:05.874Z,12.13
2018-10-16T19:57:34.601Z,11.33
2018-10-16T20:00:03.406Z,13.17
2018-10-16T20:02:32.138Z,14.83
2018-10-16T20:05:00.863Z,12.27
2018-10-16T20:07:29.623Z,16.60
2018-10-16T20:09:58.387Z,13.83
2018-10-16T20:12:27.137Z,16.07
2018-10-16T20:14:55.910Z,14.37
2018-10-16T20:17:24.726Z,14.40
2018-10-16T20:19:53.479Z,14.30
2018-10-16T20:22:22.282Z,15.60
2018-10-16T20:24:51.067Z,14.83
2018-10-16T20:27:19.802Z,12.80
2018-10-16T20:29:49.133Z,14.37
2018-10-16T20:32:17.939Z,15.83
2018-10-16T20:34:47.870Z,17.43
2018-10-16T20:37:16.610Z,16.27
2018-10-16T20:39:45.382Z,15.50
2018-10-16T20:42:14.169Z,15.70
2018-10-16T20:44:42.956Z,15.43
2018-10-16T20:47:11.690Z,13.93
2018-10-16T20:49:40.452Z,16.80
2018-10-16T20:52:09.307Z,14.73
2018-10-16T20:54:38.062Z,17.80
2018-10-16T20:57:07.102Z,15.90
2018-10-16T20:59:35.852Z,16.27
2018-10-16T21:02:05.199Z,17.90
2018-10-16T21:04:34.050Z,16.90
2018-10-16T21:07:02.872Z,14.83
2018-10-16T21:09:31.487Z,14.20
2018-10-16T21:12:00.229Z,17.10
2018-10-16T21:14:28.967Z,14.43
2018-10-16T21:16:57.721Z,13.90
2018-10-16T21:22:02.880Z,14.77
2018-10-16T21:24:31.677Z,16.87
2018-10-16T21:27:02.418Z,15.40
2018-10-16T21:29:31.280Z,15.63
2018-10-16T21:32:00.050Z,15.37
2018-10-16T21:34:28.917Z,17.37
2018-10-16T21:36:57.736Z,15.60
2018-10-16T21:39:26.454Z,14.30
2018-10-16T21:41:55.229Z,14.83
2018-10-16T21:44:23.993Z,15.90
2018-10-16T21:46:53.249Z,17.53
2018-10-16T21:49:22.726Z,13.20
2018-10-16T21:51:51.713Z,12.57
2018-10-16T21:54:20.482Z,13.70
2018-10-16T21:56:49.210Z,13.53
2018-10-16T21:59:18.562Z,13.60
2018-10-16T22:01:52.858Z,14.57
2018-10-16T22:04:21.744Z,13.57
2018-10-16T22:06:50.545Z,17.10
2018-10-16T22:09:19.353Z,14.67
2018-10-16T22:11:48.137Z,13.83
2018-10-16T22:14:16.861Z,14.65
2018-10-16T22:16:45.615Z,14.17
2018-10-16T22:19:14.489Z,16.40
2018-10-16T22:21:43.185Z,15.70
2018-10-16T22:24:11.925Z,15.25
2018-10-16T22:26:40.646Z,16.87
2018-10-16T22:29:09.450Z,17.48
2018-10-16T22:31:38.109Z,16.80
2018-10-16T22:34:06.974Z,16.73
2018-10-16T22:36:35.705Z,19.27
2018-10-16T22:39:07.442Z,17.93
2018-10-16T22:41:36.231Z,17.77
2018-10-16T22:44:05.442Z,14.57
2018-10-16T22:46:34.489Z,15.20
2018-10-16T22:49:04.467Z,18.07
2018-10-16T22:51:33.397Z,15.50
2018-10-16T22:54:02.142Z,18.53
2018-10-16T22:56:30.897Z,17.93
2018-10-16T22:59:00.341Z,19.97
2018-10-16T23:01:29.061Z,18.50
2018-10-16T23:03:57.869Z,17.73
2018-10-16T23:06:26.612Z,17.73
2018-10-16T23:08:55.393Z,17.97
2018-10-16T23:11:24.130Z,18.27
2018-10-16T23:13:52.878Z,18.13
2018-10-16T23:16:21.658Z,15.97
2018-10-16T23:18:50.397Z,19.03
2018-10-16T23:21:19.165Z,18.30
2018-10-16T23:23:47.881Z,18.40
2018-10-16T23:26:16.640Z,19.32
2018-10-16T23:28:45.459Z,18.90
2018-10-16T23:31:14.327Z,17.07
2018-10-16T23:33:42.973Z,17.43
2018-10-16T23:36:11.743Z,16.32
2018-10-16T23:38:40.486Z,20.13
2018-10-16T23:41:09.304Z,20.33
2018-10-16T23:43:38.076Z,19.67
2018-10-16T23:46:07.193Z,18.40
2018-10-16T23:48:36.185Z,18.07
2018-10-16T23:51:05.327Z,18.00
2018-10-16T23:53:34.083Z,17.33
2018-10-16T23:56:02.833Z,19.97
2018-10-16T23:58:31.629Z,19.80
